Almedia, Pennsylvania
Current Conditions -  °F | °C
As of 4:35 PM on Friday 24 Oct 2014 (Local Time) from KHZL Reporting Station
Clear Clear  
Wind Chill: 17°   Ceiling: Unl
Heat Index: 17°   Visibility: 10mi
Dew Point:   Wind: 14mph
Humidity: 45%   Direction: 320°NW
Pressure: 29.87"   Gusts: 21mph
Location:  41.0301°N, 76.4558°W
Report Text: KHZL 242035Z AUTO 32012G18KT 10SM CLR 17/05 A2987 RMK AO2
Loading
Personal Weather Stations






























Interactive Weather Map New forecast layout! Learn more

10-Day Weather Forecast

Advertisements
Track Severe Weather on mobile